createdAt,value
2018-07-26T00:01:25.817Z,17.53
2018-07-26T00:03:55.149Z,9.23
2018-07-26T00:06:24.482Z,7.73
2018-07-26T00:08:53.784Z,5.87
2018-07-26T00:11:23.150Z,11.13
2018-07-26T00:13:52.104Z,10.23
2018-07-26T00:16:21.439Z,9.57
2018-07-26T00:18:50.740Z,10.67
2018-07-26T00:21:20.127Z,11.43
2018-07-26T00:23:49.501Z,8.50
2018-07-26T00:26:18.791Z,10.40
2018-07-26T00:28:48.099Z,10.27
2018-07-26T00:31:17.374Z,8.23
2018-07-26T00:33:46.698Z,6.40
2018-07-26T00:36:16.007Z,15.13
2018-07-26T00:38:45.315Z,13.97
2018-07-26T00:41:14.633Z,5.63
2018-07-26T00:43:43.941Z,5.77
2018-07-26T00:46:13.278Z,15.23
2018-07-26T00:48:42.654Z,7.57
2018-07-26T00:51:12.038Z,11.30
2018-07-26T00:53:41.363Z,5.27
2018-07-26T00:56:10.693Z,6.40
2018-07-26T00:58:39.993Z,9.07
2018-07-26T01:01:09.623Z,12.20
2018-07-26T01:03:38.916Z,11.60
2018-07-26T01:06:08.266Z,11.20
2018-07-26T01:08:37.724Z,8.00
2018-07-26T01:11:07.133Z,9.00
2018-07-26T01:13:36.657Z,11.77
2018-07-26T01:16:06.061Z,16.47
2018-07-26T01:18:35.413Z,12.13
2018-07-26T01:21:04.700Z,17.07
2018-07-26T01:23:34.055Z,10.60
2018-07-26T01:26:03.409Z,8.83
2018-07-26T01:28:32.787Z,5.57
2018-07-26T01:31:02.072Z,7.83
2018-07-26T01:33:31.345Z,6.23
2018-07-26T01:36:00.605Z,7.40
2018-07-26T01:38:29.886Z,7.63
2018-07-26T01:40:59.167Z,8.70
2018-07-26T01:43:49.756Z,9.30
2018-07-26T01:46:20.425Z,10.50
2018-07-26T01:48:50.021Z,17.90
2018-07-26T01:51:19.382Z,9.63
2018-07-26T01:53:48.705Z,17.03
2018-07-26T01:56:17.975Z,8.50
2018-07-26T01:58:47.305Z,7.60
2018-07-26T02:01:16.599Z,8.23
2018-07-26T02:03:45.891Z,6.40
2018-07-26T02:06:15.249Z,10.20
2018-07-26T02:08:44.519Z,13.13
2018-07-26T02:11:13.829Z,7.37
2018-07-26T02:13:43.171Z,10.93
2018-07-26T02:16:12.509Z,7.50
2018-07-26T02:18:41.863Z,9.73
2018-07-26T02:21:11.157Z,10.70
2018-07-26T02:23:40.505Z,5.87
2018-07-26T02:26:09.915Z,11.07
2018-07-26T02:28:39.761Z,7.60
2018-07-26T02:31:09.155Z,13.20
2018-07-26T02:33:38.496Z,14.37
2018-07-26T02:36:07.840Z,7.13
2018-07-26T02:38:37.236Z,13.50
2018-07-26T02:41:06.688Z,13.70
2018-07-26T02:43:36.278Z,7.03
2018-07-26T02:46:05.502Z,17.90
2018-07-26T02:48:34.845Z,10.60
2018-07-26T02:51:04.169Z,7.00
2018-07-26T02:53:33.149Z,10.60
2018-07-26T02:56:02.367Z,12.80
2018-07-26T02:58:31.742Z,9.93
2018-07-26T03:01:01.068Z,10.03
2018-07-26T03:03:30.407Z,9.83
2018-07-26T03:05:59.734Z,7.20
2018-07-26T03:08:29.138Z,12.03
2018-07-26T03:10:58.446Z,6.30
2018-07-26T03:13:27.790Z,9.00
2018-07-26T03:15:57.175Z,9.10
2018-07-26T03:18:27.567Z,15.57
2018-07-26T03:20:56.916Z,14.77
2018-07-26T03:23:26.239Z,9.80
2018-07-26T03:25:56.070Z,10.30
2018-07-26T03:28:25.354Z,15.50
2018-07-26T03:30:54.745Z,10.40
2018-07-26T03:33:24.094Z,20.63
2018-07-26T03:35:53.478Z,18.33
2018-07-26T03:38:23.910Z,9.53
2018-07-26T03:40:53.205Z,10.13
2018-07-26T03:43:22.502Z,10.87
2018-07-26T03:45:51.888Z,14.83
2018-07-26T03:48:21.177Z,7.03
2018-07-26T03:50:50.630Z,18.57
2018-07-26T03:53:19.999Z,6.97
2018-07-26T03:55:49.462Z,7.10
2018-07-26T03:58:18.770Z,7.07
2018-07-26T04:00:48.118Z,12.70
2018-07-26T04:03:17.495Z,10.60
2018-07-26T04:05:46.898Z,17.40
2018-07-26T04:08:16.275Z,14.47
2018-07-26T04:10:45.654Z,8.03
2018-07-26T04:13:15.113Z,10.80
2018-07-26T04:15:44.555Z,13.53
2018-07-26T04:18:13.996Z,12.33
2018-07-26T04:20:43.366Z,14.67
2018-07-26T04:23:12.765Z,8.60
2018-07-26T04:25:42.110Z,11.10
2018-07-26T04:28:11.471Z,15.40
2018-07-26T04:30:40.818Z,9.60
2018-07-26T04:33:10.186Z,7.40
2018-07-26T04:35:39.545Z,8.80
2018-07-26T04:38:08.911Z,6.20
2018-07-26T04:40:38.253Z,18.80
2018-07-26T04:43:07.656Z,23.63
2018-07-26T04:45:37.006Z,8.43
2018-07-26T04:48:06.466Z,6.43
2018-07-26T04:50:35.808Z,14.77
2018-07-26T04:53:05.294Z,16.53
2018-07-26T04:55:34.666Z,13.17
2018-07-26T04:58:04.081Z,17.77
2018-07-26T05:00:33.435Z,13.37
2018-07-26T05:03:02.791Z,9.40
2018-07-26T05:05:32.160Z,8.43
2018-07-26T05:08:01.607Z,8.90
2018-07-26T05:10:30.937Z,8.77
2018-07-26T05:13:00.311Z,10.03
2018-07-26T05:15:29.655Z,9.80
2018-07-26T05:17:58.972Z,8.23
2018-07-26T05:20:28.375Z,11.77
2018-07-26T05:22:57.842Z,11.87
2018-07-26T05:25:27.234Z,12.93
2018-07-26T05:27:56.577Z,12.23
2018-07-26T05:30:25.987Z,18.73
2018-07-26T05:32:55.355Z,15.13
2018-07-26T05:35:24.783Z,20.10
2018-07-26T05:37:54.168Z,11.07
2018-07-26T05:40:23.614Z,10.47
2018-07-26T05:42:52.961Z,13.60
2018-07-26T05:45:22.277Z,6.40
2018-07-26T05:47:51.610Z,12.00
2018-07-26T05:50:20.963Z,8.70
2018-07-26T05:52:50.335Z,9.50
2018-07-26T05:55:19.696Z,6.03
2018-07-26T05:57:49.143Z,13.50
2018-07-26T06:00:18.471Z,11.20
2018-07-26T06:02:47.779Z,10.67
2018-07-26T06:05:17.132Z,11.30
2018-07-26T06:07:46.430Z,9.33
2018-07-26T06:10:15.859Z,10.83
2018-07-26T06:12:45.206Z,9.57
2018-07-26T06:15:14.582Z,7.53
2018-07-26T06:17:43.946Z,7.13
2018-07-26T06:20:13.449Z,5.67
2018-07-26T06:22:42.819Z,8.70
2018-07-26T06:25:11.897Z,5.70
2018-07-26T06:27:41.152Z,13.63
2018-07-26T06:30:12.265Z,8.33
2018-07-26T06:32:42.264Z,15.63
2018-07-26T06:35:11.734Z,15.00
2018-07-26T06:37:41.156Z,6.00
2018-07-26T06:40:10.637Z,5.70
2018-07-26T06:42:40.018Z,12.13
2018-07-26T06:45:10.298Z,15.33
2018-07-26T06:47:39.825Z,10.03
2018-07-26T06:50:10.969Z,7.77
2018-07-26T06:52:40.900Z,15.27
2018-07-26T06:55:10.725Z,7.97
2018-07-26T06:57:40.190Z,9.43
2018-07-26T07:00:09.448Z,9.47
2018-07-26T07:02:39.422Z,7.87
2018-07-26T07:05:09.421Z,10.83
2018-07-26T07:07:39.147Z,7.10
2018-07-26T07:10:08.564Z,12.43
2018-07-26T07:12:37.930Z,7.23
2018-07-26T07:15:07.304Z,8.80
2018-07-26T07:17:36.743Z,9.93
2018-07-26T07:20:06.243Z,15.53
2018-07-26T07:22:35.478Z,16.57
2018-07-26T07:25:05.105Z,8.73
2018-07-26T07:27:34.415Z,12.53
2018-07-26T07:30:04.354Z,5.50
2018-07-26T07:32:33.728Z,12.77
2018-07-26T07:35:03.039Z,11.27
2018-07-26T07:37:32.462Z,9.90
2018-07-26T07:40:01.766Z,11.50
2018-07-26T07:42:31.107Z,9.20
2018-07-26T07:45:00.394Z,4.20
2018-07-26T07:47:30.797Z,14.87
2018-07-26T07:50:00.083Z,6.40
2018-07-26T07:52:29.462Z,8.50
2018-07-26T07:54:59.878Z,7.33
2018-07-26T07:57:29.243Z,15.07
2018-07-26T07:59:58.255Z,3.90
2018-07-26T08:02:27.463Z,15.70
2018-07-26T08:04:56.900Z,12.03
2018-07-26T08:07:26.290Z,8.70
2018-07-26T08:09:55.638Z,3.93
2018-07-26T08:12:25.008Z,8.40
2018-07-26T08:14:54.401Z,7.70
2018-07-26T08:17:23.726Z,16.50
2018-07-26T08:19:53.019Z,8.40
2018-07-26T08:22:22.490Z,5.23
2018-07-26T08:24:51.957Z,10.20
2018-07-26T08:27:21.418Z,6.97
2018-07-26T08:29:50.703Z,5.77
2018-07-26T08:32:20.551Z,6.60
2018-07-26T08:34:50.178Z,8.70
2018-07-26T08:37:19.724Z,7.67
2018-07-26T08:39:49.489Z,2.77
2018-07-26T08:42:19.140Z,3.87
2018-07-26T08:44:48.788Z,2.73
2018-07-26T08:47:18.349Z,1.97
2018-07-26T08:49:48.058Z,5.03
2018-07-26T08:52:17.524Z,6.20
2018-07-26T08:54:46.901Z,3.83
2018-07-26T08:57:16.419Z,3.67
2018-07-26T08:59:45.968Z,2.90
2018-07-26T09:02:15.586Z,3.70
2018-07-26T09:04:46.053Z,8.00
2018-07-26T09:07:15.622Z,3.80
2018-07-26T09:09:45.836Z,4.70
2018-07-26T09:12:15.482Z,6.53
2018-07-26T09:14:45.870Z,4.33
2018-07-26T09:17:15.467Z,3.63
2018-07-26T09:19:44.761Z,9.17
2018-07-26T09:22:14.220Z,6.47
2018-07-26T09:24:43.774Z,8.40
2018-07-26T09:27:13.959Z,8.57
2018-07-26T09:29:43.634Z,3.57
2018-07-26T09:32:13.486Z,3.70
2018-07-26T09:34:43.416Z,4.10
2018-07-26T09:37:13.203Z,17.70
2018-07-26T09:39:42.601Z,4.43
2018-07-26T09:42:12.010Z,3.10
2018-07-26T09:44:41.355Z,3.63
2018-07-26T09:47:10.838Z,7.60
2018-07-26T09:49:40.314Z,2.23
2018-07-26T09:52:09.868Z,2.90
2018-07-26T09:54:39.295Z,4.83
2018-07-26T09:57:08.707Z,7.03
2018-07-26T09:59:38.103Z,4.83
2018-07-26T10:02:07.520Z,2.80
2018-07-26T10:04:36.879Z,5.00
2018-07-26T10:07:06.218Z,4.37
2018-07-26T10:09:35.633Z,4.40
2018-07-26T10:12:05.070Z,4.17
2018-07-26T10:14:34.500Z,9.40
2018-07-26T10:17:03.921Z,2.70
2018-07-26T10:19:33.302Z,6.30
2018-07-26T10:22:02.359Z,3.43
2018-07-26T10:24:31.731Z,4.80
2018-07-26T10:27:01.067Z,3.03
2018-07-26T10:29:30.491Z,5.83
2018-07-26T10:31:59.853Z,3.83
2018-07-26T10:34:29.241Z,2.00
2018-07-26T10:36:58.594Z,2.60
2018-07-26T10:39:27.977Z,3.23
2018-07-26T10:41:57.392Z,3.37
2018-07-26T10:44:26.822Z,1.97
2018-07-26T10:46:56.181Z,3.20
2018-07-26T10:49:25.616Z,2.60
2018-07-26T10:51:54.939Z,5.47
2018-07-26T10:54:23.974Z,3.97
2018-07-26T10:56:53.243Z,4.53
2018-07-26T10:59:22.749Z,4.50
2018-07-26T11:01:52.143Z,4.20
2018-07-26T11:04:21.534Z,4.27
2018-07-26T11:06:50.939Z,3.97
2018-07-26T11:09:20.601Z,3.33
2018-07-26T11:11:50.034Z,2.57
2018-07-26T11:14:19.543Z,4.77
2018-07-26T11:16:48.887Z,4.57
2018-07-26T11:19:18.338Z,4.67
2018-07-26T11:21:47.806Z,4.00
2018-07-26T11:24:17.517Z,2.23
2018-07-26T11:26:46.958Z,9.73
2018-07-26T11:29:16.315Z,2.70
2018-07-26T11:31:45.838Z,5.87
2018-07-26T11:34:15.228Z,5.37
2018-07-26T11:36:44.581Z,2.87
2018-07-26T11:39:14.062Z,8.53
2018-07-26T11:41:43.739Z,6.90
2018-07-26T11:44:13.134Z,5.70
2018-07-26T11:46:42.587Z,8.80
2018-07-26T11:49:11.987Z,2.80
2018-07-26T11:51:41.188Z,5.30
2018-07-26T11:54:10.274Z,6.07
2018-07-26T11:56:39.766Z,2.70
2018-07-26T11:59:09.307Z,7.40
2018-07-26T12:01:38.797Z,4.70
2018-07-26T12:04:08.123Z,8.70
2018-07-26T12:06:37.194Z,6.30
2018-07-26T12:09:09.010Z,4.53
2018-07-26T12:11:38.441Z,3.00
2018-07-26T12:14:08.085Z,4.10
2018-07-26T12:16:37.401Z,2.23
2018-07-26T12:19:06.816Z,5.30
2018-07-26T12:21:36.127Z,2.03
2018-07-26T12:24:05.497Z,3.10
2018-07-26T12:26:34.794Z,1.70
2018-07-26T12:29:04.120Z,3.00
2018-07-26T12:31:33.578Z,3.77
2018-07-26T12:34:02.874Z,7.03
2018-07-26T12:36:32.241Z,8.13
2018-07-26T12:39:01.722Z,5.33
2018-07-26T12:41:31.169Z,4.40
2018-07-26T12:44:00.510Z,1.87
2018-07-26T12:46:29.505Z,2.53
2018-07-26T12:48:58.662Z,3.53
2018-07-26T12:51:28.014Z,1.73
2018-07-26T12:53:57.667Z,2.17
2018-07-26T12:56:26.992Z,6.30
2018-07-26T12:58:56.531Z,2.67
2018-07-26T13:01:25.841Z,1.60
2018-07-26T13:03:55.507Z,3.23
2018-07-26T13:06:24.866Z,4.03
2018-07-26T13:08:54.358Z,2.43
2018-07-26T13:11:23.771Z,1.30
2018-07-26T13:13:53.279Z,2.43
2018-07-26T13:16:22.667Z,2.80
2018-07-26T13:18:52.031Z,5.07
2018-07-26T13:21:21.443Z,5.33
2018-07-26T13:23:50.575Z,1.97
2018-07-26T13:26:19.454Z,2.37
2018-07-26T13:28:48.772Z,3.57
2018-07-26T13:31:18.146Z,2.40
2018-07-26T13:33:47.471Z,3.13
2018-07-26T13:36:16.816Z,2.00
2018-07-26T13:38:46.238Z,4.57
2018-07-26T13:41:15.718Z,3.50
2018-07-26T13:43:45.093Z,2.77
2018-07-26T13:46:14.538Z,7.83
2018-07-26T13:48:44.095Z,8.97
2018-07-26T13:51:14.553Z,3.67
2018-07-26T13:53:44.000Z,3.30
2018-07-26T13:56:13.649Z,2.70
2018-07-26T13:58:43.003Z,16.73
2018-07-26T14:01:12.410Z,4.50
2018-07-26T14:03:41.843Z,12.37
2018-07-26T14:06:11.199Z,2.60
2018-07-26T14:08:40.531Z,2.20
2018-07-26T14:11:09.862Z,12.13
2018-07-26T14:13:39.155Z,6.07
2018-07-26T14:16:08.664Z,3.43
2018-07-26T14:18:37.876Z,1.77
2018-07-26T14:21:07.276Z,4.00
2018-07-26T14:23:40.223Z,3.20
2018-07-26T14:26:11.103Z,5.97
2018-07-26T14:28:40.549Z,2.50
2018-07-26T14:31:10.419Z,5.73
2018-07-26T14:33:39.808Z,5.43
2018-07-26T14:36:09.189Z,3.23
2018-07-26T14:38:38.511Z,2.73
2018-07-26T14:41:07.909Z,7.60
2018-07-26T14:43:37.356Z,2.80
2018-07-26T14:46:07.069Z,2.93
2018-07-26T14:48:36.372Z,2.03
2018-07-26T14:51:05.730Z,6.33
2018-07-26T14:53:35.032Z,6.93
2018-07-26T14:56:04.489Z,2.67
2018-07-26T14:58:33.865Z,2.67
2018-07-26T15:01:03.181Z,5.53
2018-07-26T15:03:32.502Z,2.20
2018-07-26T15:06:01.816Z,3.00
2018-07-26T15:08:31.163Z,2.10
2018-07-26T15:11:00.492Z,8.10
2018-07-26T15:13:29.801Z,5.80
2018-07-26T15:15:58.828Z,3.13
2018-07-26T15:18:28.079Z,2.80
2018-07-26T15:20:57.526Z,7.80
2018-07-26T15:23:26.861Z,3.10
2018-07-26T15:25:56.317Z,2.63
2018-07-26T15:28:25.626Z,4.90
2018-07-26T15:30:55.019Z,2.97
2018-07-26T15:33:24.298Z,3.00
2018-07-26T15:35:53.655Z,4.63
2018-07-26T15:38:23.052Z,3.60
2018-07-26T15:40:53.304Z,7.50
2018-07-26T15:43:22.707Z,4.43
2018-07-26T15:45:52.098Z,5.47
2018-07-26T15:48:21.400Z,3.53
2018-07-26T15:50:51.455Z,7.13
2018-07-26T15:53:20.912Z,3.60
2018-07-26T15:55:50.371Z,7.00
2018-07-26T15:58:19.706Z,3.50
2018-07-26T16:00:49.137Z,6.10
2018-07-26T16:03:18.560Z,2.87
2018-07-26T16:05:47.875Z,6.30
2018-07-26T16:08:17.244Z,3.50
2018-07-26T16:10:46.888Z,4.20
2018-07-26T16:13:16.320Z,5.47
2018-07-26T16:15:45.739Z,4.17
2018-07-26T16:18:15.335Z,3.67
2018-07-26T16:20:44.763Z,3.00
2018-07-26T16:23:14.250Z,3.30
2018-07-26T16:25:43.754Z,5.27
2018-07-26T16:28:13.174Z,4.30
2018-07-26T16:30:42.609Z,5.13
2018-07-26T16:33:12.096Z,8.97
2018-07-26T16:35:41.678Z,5.77
2018-07-26T16:38:11.125Z,7.53
2018-07-26T16:40:40.580Z,4.37
2018-07-26T16:43:10.136Z,8.93
2018-07-26T16:45:39.654Z,4.80
2018-07-26T16:48:09.114Z,4.87
2018-07-26T16:50:38.549Z,5.33
2018-07-26T16:53:08.007Z,4.23
2018-07-26T16:55:37.378Z,11.20
2018-07-26T16:58:06.838Z,4.10
2018-07-26T17:00:36.640Z,5.10
2018-07-26T17:03:06.036Z,4.37
2018-07-26T17:05:35.578Z,8.93
2018-07-26T17:08:04.999Z,4.03
2018-07-26T17:10:34.410Z,3.80
2018-07-26T17:13:03.906Z,4.30
2018-07-26T17:15:33.050Z,9.90
2018-07-26T17:18:02.319Z,6.27
2018-07-26T17:20:31.422Z,11.50
2018-07-26T17:23:01.633Z,3.23
2018-07-26T17:25:30.868Z,4.87
2018-07-26T17:28:00.237Z,3.80
2018-07-26T17:30:29.630Z,7.47
2018-07-26T17:32:59.185Z,8.67
2018-07-26T17:35:28.952Z,4.60
2018-07-26T17:37:58.370Z,5.17
2018-07-26T17:40:29.187Z,4.67
2018-07-26T17:42:58.798Z,4.50
2018-07-26T17:45:29.574Z,9.60
2018-07-26T17:47:59.207Z,4.80
2018-07-26T17:50:28.748Z,5.57
2018-07-26T17:52:58.291Z,7.00
2018-07-26T17:55:27.851Z,6.80
2018-07-26T17:57:57.292Z,6.53
2018-07-26T18:00:27.049Z,3.60
2018-07-26T18:02:56.510Z,5.20
2018-07-26T18:05:26.334Z,6.23
2018-07-26T18:07:55.795Z,5.03
2018-07-26T18:10:25.032Z,4.80
2018-07-26T18:12:54.657Z,6.63
2018-07-26T18:15:24.102Z,6.27
2018-07-26T18:17:53.567Z,7.90
2018-07-26T18:20:23.155Z,4.47
2018-07-26T18:22:52.767Z,7.27
2018-07-26T18:25:22.545Z,5.33
2018-07-26T18:27:52.095Z,8.10
2018-07-26T18:30:23.025Z,5.70
2018-07-26T18:32:54.584Z,5.83
2018-07-26T18:35:24.569Z,3.70
2018-07-26T18:37:54.096Z,8.97
2018-07-26T18:40:23.626Z,5.37
2018-07-26T18:42:53.212Z,4.13
2018-07-26T18:45:22.887Z,5.43
2018-07-26T18:47:52.613Z,5.03
2018-07-26T18:50:22.300Z,6.17
2018-07-26T18:52:51.959Z,3.90
2018-07-26T18:55:21.540Z,7.97
2018-07-26T18:57:51.446Z,8.70
2018-07-26T19:00:20.622Z,9.70
2018-07-26T19:02:50.984Z,9.27
2018-07-26T19:05:20.698Z,3.43
2018-07-26T19:07:50.357Z,18.87
2018-07-26T19:10:20.134Z,156.13
2018-07-26T19:12:59.061Z,109.83
2018-07-26T19:15:28.733Z,95.37
2018-07-26T19:17:58.672Z,127.83
2018-07-26T19:20:28.427Z,103.27
2018-07-26T19:22:57.933Z,124.00
2018-07-26T19:25:28.892Z,117.60
2018-07-26T19:27:58.857Z,128.73
2018-07-26T19:30:28.515Z,104.53
2018-07-26T19:32:58.594Z,401.90
2018-07-26T19:35:28.249Z,456.60
2018-07-26T19:37:57.760Z,462.70
2018-07-26T19:40:27.514Z,379.77
2018-07-26T19:42:57.460Z,332.97
2018-07-26T19:45:27.063Z,288.87
2018-07-26T19:47:56.884Z,213.80
2018-07-26T19:50:26.284Z,182.03
2018-07-26T19:52:55.941Z,179.73
2018-07-26T19:55:25.473Z,128.40
2018-07-26T19:57:55.561Z,95.00
2018-07-26T20:00:25.178Z,153.17
2018-07-26T20:02:54.662Z,134.83
2018-07-26T20:05:24.320Z,95.27
2018-07-26T20:07:53.803Z,110.50
2018-07-26T20:10:23.262Z,94.17
2018-07-26T20:12:52.638Z,42.23
2018-07-26T20:15:22.005Z,51.53
2018-07-26T20:17:51.398Z,27.03
2018-07-26T20:20:21.034Z,37.53
2018-07-26T20:22:50.414Z,15.40
2018-07-26T20:25:19.802Z,19.70
2018-07-26T20:27:49.134Z,28.13
2018-07-26T20:30:18.602Z,29.67
2018-07-26T20:32:48.032Z,15.03
2018-07-26T20:35:17.495Z,23.80
2018-07-26T20:37:46.894Z,25.27
2018-07-26T20:40:16.373Z,23.70
2018-07-26T20:42:45.771Z,21.47
2018-07-26T20:45:15.202Z,12.13
2018-07-26T20:47:44.692Z,16.43
2018-07-26T20:50:14.058Z,12.80
2018-07-26T20:52:43.402Z,20.33
2018-07-26T20:55:12.770Z,12.70
2018-07-26T20:57:42.134Z,11.40
2018-07-26T21:00:12.812Z,13.47
2018-07-26T21:02:42.998Z,16.00
2018-07-26T21:05:12.452Z,18.87
2018-07-26T21:07:41.765Z,9.73
2018-07-26T21:10:11.277Z,20.97
2018-07-26T21:12:40.682Z,21.23
2018-07-26T21:15:10.425Z,8.23
2018-07-26T21:17:39.846Z,23.47
2018-07-26T21:20:09.198Z,14.27
2018-07-26T21:22:40.676Z,27.03
2018-07-26T21:25:10.084Z,18.00
2018-07-26T21:27:39.435Z,7.27
2018-07-26T21:30:08.767Z,20.17
2018-07-26T21:32:38.181Z,16.20
2018-07-26T21:35:08.045Z,13.87
2018-07-26T21:37:37.508Z,8.03
2018-07-26T21:40:07.528Z,11.30
2018-07-26T21:42:37.122Z,13.90
2018-07-26T21:45:07.246Z,8.50
2018-07-26T21:47:36.659Z,14.20
2018-07-26T21:50:06.130Z,10.40
2018-07-26T21:52:35.532Z,13.53
2018-07-26T21:55:05.075Z,11.13
2018-07-26T21:57:34.406Z,12.73
2018-07-26T22:00:05.361Z,11.83
2018-07-26T22:02:34.839Z,12.47
2018-07-26T22:05:04.222Z,14.03
2018-07-26T22:07:33.633Z,12.63
2018-07-26T22:10:02.994Z,14.53
2018-07-26T22:12:32.312Z,7.33
2018-07-26T22:15:01.665Z,12.90
2018-07-26T22:17:30.893Z,15.40
2018-07-26T22:20:00.162Z,10.60
2018-07-26T22:22:29.426Z,11.00
2018-07-26T22:24:58.697Z,6.57
2018-07-26T22:27:27.955Z,9.40
2018-07-26T22:29:57.350Z,11.70
2018-07-26T22:32:26.622Z,7.13
2018-07-26T22:34:55.914Z,10.97
2018-07-26T22:37:25.165Z,14.00
2018-07-26T22:39:54.543Z,8.63
2018-07-26T22:42:23.814Z,11.37
2018-07-26T22:44:53.134Z,10.53
2018-07-26T22:47:22.458Z,6.07
2018-07-26T22:49:51.794Z,10.10
2018-07-26T22:52:21.127Z,6.13
2018-07-26T22:54:50.487Z,10.80
2018-07-26T22:57:19.844Z,8.07
2018-07-26T22:59:49.354Z,9.93
2018-07-26T23:02:18.599Z,6.70
2018-07-26T23:04:47.946Z,12.47
2018-07-26T23:07:17.270Z,7.97
2018-07-26T23:09:46.751Z,6.93
2018-07-26T23:12:16.058Z,14.70
2018-07-26T23:14:45.421Z,21.23
2018-07-26T23:17:14.723Z,7.87
2018-07-26T23:19:44.150Z,9.17
2018-07-26T23:22:13.490Z,15.50
2018-07-26T23:24:42.986Z,8.10
2018-07-26T23:27:12.359Z,15.87
2018-07-26T23:29:41.714Z,14.17
2018-07-26T23:32:11.133Z,10.40
2018-07-26T23:34:40.493Z,12.80
2018-07-26T23:37:09.854Z,16.10
2018-07-26T23:39:39.292Z,8.33
2018-07-26T23:42:08.680Z,12.77
2018-07-26T23:44:37.999Z,11.50
2018-07-26T23:47:07.335Z,6.60
2018-07-26T23:49:36.753Z,21.17
2018-07-26T23:52:06.214Z,11.50
2018-07-26T23:54:35.633Z,10.93
2018-07-26T23:57:05.083Z,10.40
2018-07-26T23:59:34.461Z,11.77
